sensor_id;sensor_type;location;lat;lon;timestamp;P1;durP1;ratioP1;P2;durP2;ratioP2
29044;SDS011;16133;49.486;12.176;2022-08-19T00:00:28;70.07;;;41.60;;
29044;SDS011;16133;49.486;12.176;2022-08-19T00:02:53;64.55;;;38.60;;
29044;SDS011;16133;49.486;12.176;2022-08-19T00:05:19;69.45;;;40.40;;
29044;SDS011;16133;49.486;12.176;2022-08-19T00:07:46;60.45;;;40.33;;
29044;SDS011;16133;49.486;12.176;2022-08-19T00:10:13;52.90;;;35.88;;
29044;SDS011;16133;49.486;12.176;2022-08-19T00:12:40;62.55;;;38.97;;
29044;SDS011;16133;49.486;12.176;2022-08-19T00:15:07;60.95;;;39.67;;
29044;SDS011;16133;49.486;12.176;2022-08-19T00:17:36;59.58;;;39.03;;
29044;SDS011;16133;49.486;12.176;2022-08-19T00:20:03;62.40;;;38.10;;
29044;SDS011;16133;49.486;12.176;2022-08-19T00:22:29;60.38;;;36.65;;
29044;SDS011;16133;49.486;12.176;2022-08-19T00:24:57;64.28;;;38.50;;
29044;SDS011;16133;49.486;12.176;2022-08-19T00:27:23;57.05;;;33.22;;
29044;SDS011;16133;49.486;12.176;2022-08-19T00:29:48;56.88;;;35.88;;
29044;SDS011;16133;49.486;12.176;2022-08-19T00:32:14;61.60;;;36.75;;
29044;SDS011;16133;49.486;12.176;2022-08-19T00:34:39;50.58;;;32.45;;
29044;SDS011;16133;49.486;12.176;2022-08-19T00:37:04;59.00;;;35.08;;
29044;SDS011;16133;49.486;12.176;2022-08-19T00:39:30;56.22;;;35.80;;
29044;SDS011;16133;49.486;12.176;2022-08-19T00:41:55;52.63;;;33.35;;
29044;SDS011;16133;49.486;12.176;2022-08-19T00:44:23;52.40;;;31.95;;
29044;SDS011;16133;49.486;12.176;2022-08-19T00:46:51;52.67;;;33.65;;
29044;SDS011;16133;49.486;12.176;2022-08-19T00:52:36;51.85;;;32.05;;
29044;SDS011;16133;49.486;12.176;2022-08-19T00:55:02;48.35;;;30.25;;
29044;SDS011;16133;49.486;12.176;2022-08-19T00:57:32;40.20;;;26.48;;
29044;SDS011;16133;49.486;12.176;2022-08-19T01:00:03;46.63;;;29.33;;
29044;SDS011;16133;49.486;12.176;2022-08-19T01:02:32;45.30;;;30.33;;
29044;SDS011;16133;49.486;12.176;2022-08-19T01:04:57;44.35;;;26.67;;
29044;SDS011;16133;49.486;12.176;2022-08-19T01:07:24;36.28;;;23.52;;
29044;SDS011;16133;49.486;12.176;2022-08-19T01:09:50;34.10;;;22.25;;
29044;SDS011;16133;49.486;12.176;2022-08-19T01:12:16;33.83;;;21.38;;
29044;SDS011;16133;49.486;12.176;2022-08-19T01:14:42;32.22;;;21.38;;
29044;SDS011;16133;49.486;12.176;2022-08-19T01:17:09;30.33;;;20.30;;
29044;SDS011;16133;49.486;12.176;2022-08-19T01:19:37;34.45;;;21.55;;
29044;SDS011;16133;49.486;12.176;2022-08-19T01:22:08;36.38;;;22.35;;
29044;SDS011;16133;49.486;12.176;2022-08-19T01:24:40;33.13;;;22.35;;
29044;SDS011;16133;49.486;12.176;2022-08-19T01:27:06;35.63;;;21.50;;
29044;SDS011;16133;49.486;12.176;2022-08-19T01:29:32;32.30;;;21.58;;
29044;SDS011;16133;49.486;12.176;2022-08-19T01:31:57;33.70;;;21.58;;
29044;SDS011;16133;49.486;12.176;2022-08-19T01:34:24;36.20;;;22.17;;
29044;SDS011;16133;49.486;12.176;2022-08-19T01:36:50;33.20;;;21.65;;
29044;SDS011;16133;49.486;12.176;2022-08-19T01:39:17;33.78;;;22.65;;
29044;SDS011;16133;49.486;12.176;2022-08-19T01:41:45;35.20;;;22.27;;
29044;SDS011;16133;49.486;12.176;2022-08-19T01:44:12;40.95;;;25.17;;
29044;SDS011;16133;49.486;12.176;2022-08-19T01:46:39;38.50;;;24.15;;
29044;SDS011;16133;49.486;12.176;2022-08-19T01:49:06;48.50;;;29.35;;
29044;SDS011;16133;49.486;12.176;2022-08-19T01:51:32;40.03;;;24.25;;
29044;SDS011;16133;49.486;12.176;2022-08-19T01:53:58;39.35;;;24.40;;
29044;SDS011;16133;49.486;12.176;2022-08-19T01:56:23;33.72;;;22.45;;
29044;SDS011;16133;49.486;12.176;2022-08-19T01:58:51;40.80;;;24.58;;
29044;SDS011;16133;49.486;12.176;2022-08-19T02:01:20;36.78;;;22.67;;
29044;SDS011;16133;49.486;12.176;2022-08-19T02:03:46;32.78;;;21.60;;
29044;SDS011;16133;49.486;12.176;2022-08-19T02:06:11;32.53;;;21.17;;
29044;SDS011;16133;49.486;12.176;2022-08-19T02:08:37;30.60;;;20.25;;
29044;SDS011;16133;49.486;12.176;2022-08-19T02:11:03;28.55;;;19.90;;
29044;SDS011;16133;49.486;12.176;2022-08-19T02:13:30;32.80;;;21.95;;
29044;SDS011;16133;49.486;12.176;2022-08-19T02:15:56;31.00;;;21.20;;
29044;SDS011;16133;49.486;12.176;2022-08-19T02:18:21;32.42;;;20.95;;
29044;SDS011;16133;49.486;12.176;2022-08-19T02:20:47;28.00;;;19.02;;
29044;SDS011;16133;49.486;12.176;2022-08-19T02:23:13;31.30;;;19.90;;
29044;SDS011;16133;49.486;12.176;2022-08-19T02:25:39;31.13;;;19.52;;
29044;SDS011;16133;49.486;12.176;2022-08-19T02:28:06;28.27;;;19.58;;
29044;SDS011;16133;49.486;12.176;2022-08-19T02:30:31;36.60;;;22.67;;
29044;SDS011;16133;49.486;12.176;2022-08-19T02:32:57;30.65;;;20.52;;
29044;SDS011;16133;49.486;12.176;2022-08-19T02:35:22;34.65;;;21.45;;
29044;SDS011;16133;49.486;12.176;2022-08-19T02:48:09;33.58;;;20.15;;
29044;SDS011;16133;49.486;12.176;2022-08-19T02:50:38;42.60;;;24.55;;
29044;SDS011;16133;49.486;12.176;2022-08-19T02:53:04;39.67;;;22.05;;
29044;SDS011;16133;49.486;12.176;2022-08-19T02:55:30;34.47;;;21.70;;
29044;SDS011;16133;49.486;12.176;2022-08-19T02:57:56;41.72;;;25.67;;
29044;SDS011;16133;49.486;12.176;2022-08-19T03:00:22;37.85;;;22.42;;
29044;SDS011;16133;49.486;12.176;2022-08-19T03:02:48;49.05;;;27.15;;
29044;SDS011;16133;49.486;12.176;2022-08-19T03:05:14;64.85;;;32.35;;
29044;SDS011;16133;49.486;12.176;2022-08-19T03:07:39;58.20;;;30.73;;
29044;SDS011;16133;49.486;12.176;2022-08-19T03:10:05;47.58;;;27.55;;
29044;SDS011;16133;49.486;12.176;2022-08-19T03:12:30;46.35;;;27.75;;
29044;SDS011;16133;49.486;12.176;2022-08-19T03:14:56;47.42;;;29.25;;
29044;SDS011;16133;49.486;12.176;2022-08-19T03:17:21;55.40;;;31.33;;
29044;SDS011;16133;49.486;12.176;2022-08-19T03:19:47;54.42;;;30.65;;
29044;SDS011;16133;49.486;12.176;2022-08-19T03:22:12;55.33;;;30.13;;
29044;SDS011;16133;49.486;12.176;2022-08-19T03:24:37;39.50;;;24.35;;
29044;SDS011;16133;49.486;12.176;2022-08-19T03:27:03;40.70;;;24.63;;
29044;SDS011;16133;49.486;12.176;2022-08-19T03:29:30;34.60;;;21.35;;
29044;SDS011;16133;49.486;12.176;2022-08-19T03:31:57;38.88;;;22.60;;
29044;SDS011;16133;49.486;12.176;2022-08-19T03:34:24;40.30;;;23.08;;
29044;SDS011;16133;49.486;12.176;2022-08-19T03:36:53;44.80;;;23.90;;
29044;SDS011;16133;49.486;12.176;2022-08-19T03:39:19;40.30;;;22.98;;
29044;SDS011;16133;49.486;12.176;2022-08-19T03:41:46;38.42;;;22.70;;
29044;SDS011;16133;49.486;12.176;2022-08-19T03:44:15;37.22;;;20.98;;
29044;SDS011;16133;49.486;12.176;2022-08-19T03:46:42;34.97;;;22.85;;
29044;SDS011;16133;49.486;12.176;2022-08-19T03:49:08;38.58;;;21.55;;
29044;SDS011;16133;49.486;12.176;2022-08-19T03:51:35;38.50;;;20.90;;
29044;SDS011;16133;49.486;12.176;2022-08-19T03:54:04;30.65;;;20.08;;
29044;SDS011;16133;49.486;12.176;2022-08-19T03:56:33;27.75;;;17.88;;
29044;SDS011;16133;49.486;12.176;2022-08-19T03:58:59;40.85;;;24.75;;
29044;SDS011;16133;49.486;12.176;2022-08-19T04:01:26;34.95;;;22.42;;
29044;SDS011;16133;49.486;12.176;2022-08-19T04:03:53;39.75;;;24.83;;
29044;SDS011;16133;49.486;12.176;2022-08-19T04:06:22;32.97;;;20.92;;
29044;SDS011;16133;49.486;12.176;2022-08-19T04:08:50;40.42;;;22.77;;
29044;SDS011;16133;49.486;12.176;2022-08-19T04:11:19;31.02;;;20.23;;
29044;SDS011;16133;49.486;12.176;2022-08-19T04:13:48;33.67;;;20.38;;
29044;SDS011;16133;49.486;12.176;2022-08-19T04:16:16;33.75;;;21.45;;
29044;SDS011;16133;49.486;12.176;2022-08-19T04:18:42;29.75;;;19.42;;
29044;SDS011;16133;49.486;12.176;2022-08-19T04:21:08;33.55;;;21.38;;
29044;SDS011;16133;49.486;12.176;2022-08-19T04:23:39;31.00;;;19.02;;
29044;SDS011;16133;49.486;12.176;2022-08-19T04:26:05;30.40;;;19.48;;
29044;SDS011;16133;49.486;12.176;2022-08-19T04:28:31;29.95;;;19.50;;
29044;SDS011;16133;49.486;12.176;2022-08-19T04:30:56;36.15;;;25.13;;
29044;SDS011;16133;49.486;12.176;2022-08-19T04:33:23;31.15;;;19.58;;
29044;SDS011;16133;49.486;12.176;2022-08-19T04:35:51;29.38;;;18.95;;
29044;SDS011;16133;49.486;12.176;2022-08-19T04:38:19;26.73;;;17.17;;
29044;SDS011;16133;49.486;12.176;2022-08-19T04:40:48;26.58;;;17.60;;
29044;SDS011;16133;49.486;12.176;2022-08-19T04:43:34;27.30;;;17.80;;
29044;SDS011;16133;49.486;12.176;2022-08-19T04:46:08;35.80;;;22.58;;
29044;SDS011;16133;49.486;12.176;2022-08-19T04:48:38;27.92;;;18.02;;
29044;SDS011;16133;49.486;12.176;2022-08-19T04:51:08;25.75;;;17.55;;
29044;SDS011;16133;49.486;12.176;2022-08-19T04:53:37;27.05;;;17.52;;
29044;SDS011;16133;49.486;12.176;2022-08-19T04:56:05;26.92;;;17.00;;
29044;SDS011;16133;49.486;12.176;2022-08-19T04:58:42;24.20;;;15.88;;
29044;SDS011;16133;49.486;12.176;2022-08-19T05:01:11;25.58;;;16.70;;
29044;SDS011;16133;49.486;12.176;2022-08-19T05:03:37;23.98;;;16.55;;
29044;SDS011;16133;49.486;12.176;2022-08-19T05:06:07;27.15;;;17.42;;
29044;SDS011;16133;49.486;12.176;2022-08-19T05:08:35;24.60;;;16.65;;
29044;SDS011;16133;49.486;12.176;2022-08-19T05:11:07;25.52;;;16.85;;
29044;SDS011;16133;49.486;12.176;2022-08-19T05:13:34;26.67;;;17.83;;
29044;SDS011;16133;49.486;12.176;2022-08-19T05:16:00;27.80;;;18.27;;
29044;SDS011;16133;49.486;12.176;2022-08-19T05:18:25;29.42;;;18.17;;
29044;SDS011;16133;49.486;12.176;2022-08-19T05:21:10;27.17;;;17.90;;
29044;SDS011;16133;49.486;12.176;2022-08-19T05:23:56;23.77;;;15.65;;
29044;SDS011;16133;49.486;12.176;2022-08-19T05:26:22;27.65;;;17.80;;
29044;SDS011;16133;49.486;12.176;2022-08-19T05:28:48;26.30;;;16.98;;
29044;SDS011;16133;49.486;12.176;2022-08-19T05:31:13;22.02;;;15.52;;
29044;SDS011;16133;49.486;12.176;2022-08-19T05:33:38;22.60;;;15.88;;
29044;SDS011;16133;49.486;12.176;2022-08-19T05:36:04;22.15;;;15.68;;
29044;SDS011;16133;49.486;12.176;2022-08-19T05:38:32;21.58;;;14.90;;
29044;SDS011;16133;49.486;12.176;2022-08-19T05:40:58;18.70;;;14.13;;
29044;SDS011;16133;49.486;12.176;2022-08-19T05:43:23;20.73;;;15.55;;
29044;SDS011;16133;49.486;12.176;2022-08-19T05:45:48;19.85;;;14.43;;
29044;SDS011;16133;49.486;12.176;2022-08-19T05:48:15;20.90;;;14.02;;
29044;SDS011;16133;49.486;12.176;2022-08-19T05:50:42;20.27;;;14.30;;
29044;SDS011;16133;49.486;12.176;2022-08-19T05:53:10;24.80;;;16.88;;
29044;SDS011;16133;49.486;12.176;2022-08-19T05:55:35;19.33;;;14.00;;
29044;SDS011;16133;49.486;12.176;2022-08-19T05:58:03;20.45;;;14.60;;
29044;SDS011;16133;49.486;12.176;2022-08-19T06:00:28;20.42;;;14.32;;
29044;SDS011;16133;49.486;12.176;2022-08-19T06:02:56;19.23;;;14.38;;
29044;SDS011;16133;49.486;12.176;2022-08-19T06:05:24;21.13;;;14.45;;
29044;SDS011;16133;49.486;12.176;2022-08-19T06:07:50;19.70;;;14.20;;
29044;SDS011;16133;49.486;12.176;2022-08-19T06:10:15;18.27;;;13.63;;
29044;SDS011;16133;49.486;12.176;2022-08-19T06:12:40;20.17;;;14.48;;
29044;SDS011;16133;49.486;12.176;2022-08-19T06:15:07;18.67;;;14.30;;
29044;SDS011;16133;49.486;12.176;2022-08-19T06:17:35;16.35;;;12.88;;
29044;SDS011;16133;49.486;12.176;2022-08-19T06:20:02;16.88;;;12.93;;
29044;SDS011;16133;49.486;12.176;2022-08-19T06:22:29;17.33;;;13.55;;
29044;SDS011;16133;49.486;12.176;2022-08-19T06:24:55;28.83;;;15.05;;
29044;SDS011;16133;49.486;12.176;2022-08-19T06:27:21;18.65;;;13.45;;
29044;SDS011;16133;49.486;12.176;2022-08-19T06:29:46;15.95;;;12.57;;
29044;SDS011;16133;49.486;12.176;2022-08-19T06:32:12;16.40;;;12.30;;
29044;SDS011;16133;49.486;12.176;2022-08-19T06:34:39;15.93;;;12.40;;
29044;SDS011;16133;49.486;12.176;2022-08-19T06:37:05;15.63;;;11.77;;
29044;SDS011;16133;49.486;12.176;2022-08-19T06:39:35;13.60;;;11.05;;
29044;SDS011;16133;49.486;12.176;2022-08-19T06:42:03;13.07;;;10.27;;
29044;SDS011;16133;49.486;12.176;2022-08-19T06:44:32;14.23;;;11.07;;
29044;SDS011;16133;49.486;12.176;2022-08-19T06:47:01;13.07;;;10.30;;
29044;SDS011;16133;49.486;12.176;2022-08-19T06:49:30;14.70;;;11.55;;
29044;SDS011;16133;49.486;12.176;2022-08-19T06:51:56;19.75;;;14.25;;
29044;SDS011;16133;49.486;12.176;2022-08-19T06:54:23;21.85;;;13.30;;
29044;SDS011;16133;49.486;12.176;2022-08-19T06:56:50;17.10;;;12.77;;
29044;SDS011;16133;49.486;12.176;2022-08-19T06:59:17;21.17;;;14.07;;
29044;SDS011;16133;49.486;12.176;2022-08-19T07:01:47;17.80;;;13.38;;
29044;SDS011;16133;49.486;12.176;2022-08-19T07:04:15;17.05;;;13.52;;
29044;SDS011;16133;49.486;12.176;2022-08-19T07:06:42;18.38;;;12.18;;
29044;SDS011;16133;49.486;12.176;2022-08-19T07:09:09;15.82;;;11.98;;
29044;SDS011;16133;49.486;12.176;2022-08-19T07:11:36;13.27;;;10.85;;
29044;SDS011;16133;49.486;12.176;2022-08-19T07:14:02;15.68;;;11.73;;
29044;SDS011;16133;49.486;12.176;2022-08-19T07:16:28;15.32;;;11.85;;
29044;SDS011;16133;49.486;12.176;2022-08-19T07:18:57;15.05;;;11.20;;
29044;SDS011;16133;49.486;12.176;2022-08-19T07:21:24;14.98;;;11.45;;
29044;SDS011;16133;49.486;12.176;2022-08-19T07:23:54;14.18;;;11.05;;
29044;SDS011;16133;49.486;12.176;2022-08-19T07:26:22;16.60;;;10.20;;
29044;SDS011;16133;49.486;12.176;2022-08-19T07:28:58;14.07;;;10.93;;
29044;SDS011;16133;49.486;12.176;2022-08-19T07:31:27;12.68;;;9.13;;
29044;SDS011;16133;49.486;12.176;2022-08-19T07:33:53;17.60;;;11.80;;
29044;SDS011;16133;49.486;12.176;2022-08-19T07:36:24;13.45;;;10.77;;
29044;SDS011;16133;49.486;12.176;2022-08-19T07:38:55;16.40;;;11.60;;
29044;SDS011;16133;49.486;12.176;2022-08-19T07:41:22;19.35;;;12.85;;
29044;SDS011;16133;49.486;12.176;2022-08-19T07:43:49;16.63;;;12.15;;
29044;SDS011;16133;49.486;12.176;2022-08-19T07:46:15;17.65;;;13.23;;
29044;SDS011;16133;49.486;12.176;2022-08-19T07:48:41;14.13;;;11.50;;
29044;SDS011;16133;49.486;12.176;2022-08-19T07:51:08;15.25;;;10.52;;
29044;SDS011;16133;49.486;12.176;2022-08-19T07:53:35;12.90;;;10.90;;
29044;SDS011;16133;49.486;12.176;2022-08-19T07:56:02;15.40;;;11.65;;
29044;SDS011;16133;49.486;12.176;2022-08-19T07:58:29;14.18;;;10.70;;
29044;SDS011;16133;49.486;12.176;2022-08-19T08:00:56;17.27;;;12.40;;
29044;SDS011;16133;49.486;12.176;2022-08-19T08:03:22;15.02;;;10.68;;
29044;SDS011;16133;49.486;12.176;2022-08-19T08:06:10;13.98;;;10.25;;
29044;SDS011;16133;49.486;12.176;2022-08-19T08:08:59;15.10;;;9.80;;
29044;SDS011;16133;49.486;12.176;2022-08-19T08:11:40;14.73;;;10.32;;
29044;SDS011;16133;49.486;12.176;2022-08-19T08:14:13;13.57;;;10.63;;
29044;SDS011;16133;49.486;12.176;2022-08-19T08:16:40;13.65;;;9.88;;
29044;SDS011;16133;49.486;12.176;2022-08-19T08:19:07;12.38;;;10.10;;
29044;SDS011;16133;49.486;12.176;2022-08-19T08:21:33;13.15;;;9.40;;
29044;SDS011;16133;49.486;12.176;2022-08-19T08:23:59;12.48;;;9.65;;
29044;SDS011;16133;49.486;12.176;2022-08-19T08:26:24;15.40;;;9.35;;
29044;SDS011;16133;49.486;12.176;2022-08-19T08:28:50;15.60;;;10.70;;
29044;SDS011;16133;49.486;12.176;2022-08-19T08:31:16;17.20;;;12.52;;
29044;SDS011;16133;49.486;12.176;2022-08-19T08:33:44;16.45;;;11.30;;
29044;SDS011;16133;49.486;12.176;2022-08-19T08:36:10;18.05;;;12.10;;
29044;SDS011;16133;49.486;12.176;2022-08-19T08:38:37;16.92;;;11.90;;
29044;SDS011;16133;49.486;12.176;2022-08-19T08:41:09;14.57;;;10.88;;
29044;SDS011;16133;49.486;12.176;2022-08-19T08:51:31;12.48;;;9.10;;
29044;SDS011;16133;49.486;12.176;2022-08-19T08:54:07;11.88;;;8.93;;
29044;SDS011;16133;49.486;12.176;2022-08-19T08:56:40;17.08;;;12.32;;
29044;SDS011;16133;49.486;12.176;2022-08-19T08:59:10;15.63;;;10.30;;
29044;SDS011;16133;49.486;12.176;2022-08-19T09:01:44;11.95;;;8.85;;
29044;SDS011;16133;49.486;12.176;2022-08-19T09:04:09;12.70;;;10.02;;
29044;SDS011;16133;49.486;12.176;2022-08-19T09:11:44;12.38;;;9.07;;
29044;SDS011;16133;49.486;12.176;2022-08-19T09:14:55;13.43;;;9.75;;
29044;SDS011;16133;49.486;12.176;2022-08-19T09:17:00;12.50;;;9.80;;
29044;SDS011;16133;49.486;12.176;2022-08-19T09:19:28;14.82;;;9.68;;
29044;SDS011;16133;49.486;12.176;2022-08-19T09:21:54;13.00;;;9.60;;
29044;SDS011;16133;49.486;12.176;2022-08-19T09:24:20;16.88;;;11.32;;
29044;SDS011;16133;49.486;12.176;2022-08-19T09:26:45;11.70;;;8.90;;
29044;SDS011;16133;49.486;12.176;2022-08-19T09:29:11;12.20;;;9.50;;
29044;SDS011;16133;49.486;12.176;2022-08-19T09:31:36;12.20;;;9.88;;
29044;SDS011;16133;49.486;12.176;2022-08-19T09:34:02;11.20;;;8.25;;
29044;SDS011;16133;49.486;12.176;2022-08-19T09:36:30;14.07;;;9.48;;
29044;SDS011;16133;49.486;12.176;2022-08-19T09:39:02;12.25;;;8.77;;
29044;SDS011;16133;49.486;12.176;2022-08-19T09:41:29;12.35;;;8.75;;
29044;SDS011;16133;49.486;12.176;2022-08-19T09:43:55;12.00;;;8.52;;
29044;SDS011;16133;49.486;12.176;2022-08-19T09:46:26;9.52;;;7.78;;
29044;SDS011;16133;49.486;12.176;2022-08-19T09:48:53;10.73;;;7.70;;
29044;SDS011;16133;49.486;12.176;2022-08-19T09:51:21;10.68;;;7.88;;
29044;SDS011;16133;49.486;12.176;2022-08-19T09:53:49;11.88;;;7.80;;
29044;SDS011;16133;49.486;12.176;2022-08-19T09:56:16;10.23;;;7.80;;
29044;SDS011;16133;49.486;12.176;2022-08-19T09:58:42;10.15;;;7.68;;
29044;SDS011;16133;49.486;12.176;2022-08-19T10:01:08;11.20;;;9.55;;
29044;SDS011;16133;49.486;12.176;2022-08-19T10:03:41;8.15;;;6.72;;
29044;SDS011;16133;49.486;12.176;2022-08-19T10:06:06;8.07;;;7.20;;
29044;SDS011;16133;49.486;12.176;2022-08-19T10:08:33;9.38;;;7.60;;
29044;SDS011;16133;49.486;12.176;2022-08-19T10:11:01;7.20;;;6.25;;
29044;SDS011;16133;49.486;12.176;2022-08-19T10:13:29;7.97;;;6.68;;
29044;SDS011;16133;49.486;12.176;2022-08-19T10:16:01;8.73;;;6.95;;
29044;SDS011;16133;49.486;12.176;2022-08-19T10:18:31;9.18;;;6.70;;
29044;SDS011;16133;49.486;12.176;2022-08-19T10:21:04;9.35;;;7.82;;
29044;SDS011;16133;49.486;12.176;2022-08-19T10:23:33;9.05;;;7.00;;
29044;SDS011;16133;49.486;12.176;2022-08-19T10:25:59;9.43;;;6.70;;
29044;SDS011;16133;49.486;12.176;2022-08-19T10:28:25;7.32;;;6.63;;
29044;SDS011;16133;49.486;12.176;2022-08-19T10:30:51;8.02;;;6.40;;
29044;SDS011;16133;49.486;12.176;2022-08-19T10:33:16;8.55;;;6.88;;
29044;SDS011;16133;49.486;12.176;2022-08-19T10:35:41;10.80;;;6.45;;
29044;SDS011;16133;49.486;12.176;2022-08-19T10:38:07;9.43;;;7.15;;
29044;SDS011;16133;49.486;12.176;2022-08-19T10:40:32;7.57;;;6.05;;
29044;SDS011;16133;49.486;12.176;2022-08-19T10:42:58;8.45;;;6.15;;
29044;SDS011;16133;49.486;12.176;2022-08-19T10:45:23;10.68;;;7.15;;
29044;SDS011;16133;49.486;12.176;2022-08-19T10:47:50;8.63;;;6.25;;
29044;SDS011;16133;49.486;12.176;2022-08-19T10:50:18;8.82;;;6.85;;
29044;SDS011;16133;49.486;12.176;2022-08-19T10:53:06;7.78;;;6.35;;
29044;SDS011;16133;49.486;12.176;2022-08-19T10:55:33;7.70;;;5.80;;
29044;SDS011;16133;49.486;12.176;2022-08-19T10:58:19;6.38;;;5.78;;
29044;SDS011;16133;49.486;12.176;2022-08-19T11:00:51;7.30;;;6.13;;
29044;SDS011;16133;49.486;12.176;2022-08-19T11:03:18;7.43;;;6.45;;
29044;SDS011;16133;49.486;12.176;2022-08-19T11:05:43;8.73;;;6.90;;
29044;SDS011;16133;49.486;12.176;2022-08-19T11:08:09;12.27;;;7.63;;
29044;SDS011;16133;49.486;12.176;2022-08-19T11:10:36;8.77;;;7.40;;
29044;SDS011;16133;49.486;12.176;2022-08-19T11:13:02;9.80;;;6.43;;
29044;SDS011;16133;49.486;12.176;2022-08-19T11:15:28;9.40;;;7.60;;
29044;SDS011;16133;49.486;12.176;2022-08-19T11:17:54;8.60;;;7.07;;
29044;SDS011;16133;49.486;12.176;2022-08-19T11:20:20;11.98;;;8.07;;
29044;SDS011;16133;49.486;12.176;2022-08-19T11:22:46;8.93;;;7.10;;
29044;SDS011;16133;49.486;12.176;2022-08-19T11:25:11;9.40;;;7.18;;
29044;SDS011;16133;49.486;12.176;2022-08-19T11:27:40;12.57;;;7.53;;
29044;SDS011;16133;49.486;12.176;2022-08-19T11:30:10;11.07;;;8.15;;
29044;SDS011;16133;49.486;12.176;2022-08-19T11:32:36;10.90;;;7.78;;
29044;SDS011;16133;49.486;12.176;2022-08-19T11:35:01;9.70;;;7.55;;
29044;SDS011;16133;49.486;12.176;2022-08-19T11:37:27;10.48;;;8.18;;
29044;SDS011;16133;49.486;12.176;2022-08-19T11:39:52;8.27;;;6.72;;
29044;SDS011;16133;49.486;12.176;2022-08-19T11:42:18;9.82;;;7.43;;
29044;SDS011;16133;49.486;12.176;2022-08-19T11:45:02;8.80;;;6.97;;
29044;SDS011;16133;49.486;12.176;2022-08-19T11:47:29;12.05;;;8.50;;
29044;SDS011;16133;49.486;12.176;2022-08-19T11:49:55;11.05;;;8.52;;
29044;SDS011;16133;49.486;12.176;2022-08-19T11:52:20;10.40;;;8.07;;
29044;SDS011;16133;49.486;12.176;2022-08-19T11:54:46;10.43;;;7.88;;
29044;SDS011;16133;49.486;12.176;2022-08-19T11:57:11;9.70;;;7.32;;
29044;SDS011;16133;49.486;12.176;2022-08-19T11:59:37;10.82;;;7.88;;
29044;SDS011;16133;49.486;12.176;2022-08-19T12:02:02;11.18;;;8.25;;
29044;SDS011;16133;49.486;12.176;2022-08-19T12:04:27;10.18;;;7.63;;
29044;SDS011;16133;49.486;12.176;2022-08-19T12:06:53;9.95;;;7.30;;
29044;SDS011;16133;49.486;12.176;2022-08-19T12:09:18;11.07;;;8.38;;
29044;SDS011;16133;49.486;12.176;2022-08-19T12:11:43;10.95;;;7.88;;
29044;SDS011;16133;49.486;12.176;2022-08-19T12:14:10;14.18;;;8.95;;
29044;SDS011;16133;49.486;12.176;2022-08-19T12:16:39;11.65;;;9.00;;
29044;SDS011;16133;49.486;12.176;2022-08-19T12:19:05;14.00;;;9.73;;
29044;SDS011;16133;49.486;12.176;2022-08-19T12:21:32;12.50;;;9.65;;
29044;SDS011;16133;49.486;12.176;2022-08-19T12:24:00;15.35;;;10.38;;
29044;SDS011;16133;49.486;12.176;2022-08-19T12:26:28;15.38;;;10.63;;
29044;SDS011;16133;49.486;12.176;2022-08-19T12:28:56;19.83;;;12.30;;
29044;SDS011;16133;49.486;12.176;2022-08-19T12:31:23;18.10;;;11.15;;
29044;SDS011;16133;49.486;12.176;2022-08-19T12:33:49;10.82;;;9.00;;
29044;SDS011;16133;49.486;12.176;2022-08-19T12:36:15;13.30;;;9.80;;
29044;SDS011;16133;49.486;12.176;2022-08-19T12:38:42;12.13;;;9.40;;
29044;SDS011;16133;49.486;12.176;2022-08-19T12:41:10;12.25;;;9.13;;
29044;SDS011;16133;49.486;12.176;2022-08-19T12:43:37;10.93;;;9.13;;
29044;SDS011;16133;49.486;12.176;2022-08-19T12:46:03;13.10;;;9.27;;
29044;SDS011;16133;49.486;12.176;2022-08-19T12:48:30;13.55;;;9.73;;
29044;SDS011;16133;49.486;12.176;2022-08-19T12:50:59;12.65;;;9.65;;
29044;SDS011;16133;49.486;12.176;2022-08-19T12:53:24;13.93;;;9.10;;
29044;SDS011;16133;49.486;12.176;2022-08-19T12:55:57;13.25;;;9.55;;
29044;SDS011;16133;49.486;12.176;2022-08-19T12:58:24;12.65;;;9.85;;
29044;SDS011;16133;49.486;12.176;2022-08-19T13:00:50;14.68;;;10.23;;
29044;SDS011;16133;49.486;12.176;2022-08-19T13:03:16;13.85;;;9.73;;
29044;SDS011;16133;49.486;12.176;2022-08-19T13:05:41;15.63;;;10.88;;
29044;SDS011;16133;49.486;12.176;2022-08-19T13:08:07;15.65;;;11.73;;
29044;SDS011;16133;49.486;12.176;2022-08-19T13:10:33;15.25;;;10.90;;
29044;SDS011;16133;49.486;12.176;2022-08-19T13:13:01;17.40;;;11.63;;
29044;SDS011;16133;49.486;12.176;2022-08-19T13:15:33;14.00;;;10.88;;
29044;SDS011;16133;49.486;12.176;2022-08-19T13:17:59;15.55;;;11.35;;
29044;SDS011;16133;49.486;12.176;2022-08-19T13:20:24;14.50;;;11.00;;
29044;SDS011;16133;49.486;12.176;2022-08-19T13:22:50;14.77;;;10.70;;
29044;SDS011;16133;49.486;12.176;2022-08-19T13:25:16;17.77;;;12.27;;
29044;SDS011;16133;49.486;12.176;2022-08-19T13:27:44;16.00;;;11.65;;
29044;SDS011;16133;49.486;12.176;2022-08-19T13:30:11;18.88;;;13.55;;
29044;SDS011;16133;49.486;12.176;2022-08-19T13:32:57;15.10;;;11.05;;
29044;SDS011;16133;49.486;12.176;2022-08-19T13:35:47;19.13;;;14.38;;
29044;SDS011;16133;49.486;12.176;2022-08-19T13:38:16;18.40;;;12.68;;
29044;SDS011;16133;49.486;12.176;2022-08-19T13:40:44;16.40;;;10.65;;
29044;SDS011;16133;49.486;12.176;2022-08-19T13:43:11;14.15;;;10.05;;
29044;SDS011;16133;49.486;12.176;2022-08-19T13:45:36;14.90;;;10.82;;
29044;SDS011;16133;49.486;12.176;2022-08-19T13:48:05;15.15;;;9.98;;
29044;SDS011;16133;49.486;12.176;2022-08-19T13:50:34;14.18;;;9.93;;
29044;SDS011;16133;49.486;12.176;2022-08-19T13:53:03;12.55;;;9.07;;
29044;SDS011;16133;49.486;12.176;2022-08-19T13:55:29;14.48;;;10.07;;
29044;SDS011;16133;49.486;12.176;2022-08-19T13:57:56;14.05;;;10.40;;
29044;SDS011;16133;49.486;12.176;2022-08-19T14:00:23;14.73;;;10.50;;
29044;SDS011;16133;49.486;12.176;2022-08-19T14:02:51;17.35;;;9.20;;
29044;SDS011;16133;49.486;12.176;2022-08-19T14:05:19;12.48;;;9.35;;
29044;SDS011;16133;49.486;12.176;2022-08-19T14:07:45;13.57;;;9.35;;
29044;SDS011;16133;49.486;12.176;2022-08-19T14:10:11;11.13;;;7.60;;
29044;SDS011;16133;49.486;12.176;2022-08-19T14:12:38;11.65;;;8.25;;
29044;SDS011;16133;49.486;12.176;2022-08-19T14:15:05;10.65;;;7.38;;
29044;SDS011;16133;49.486;12.176;2022-08-19T14:17:32;11.15;;;7.53;;
29044;SDS011;16133;49.486;12.176;2022-08-19T14:20:00;10.93;;;8.15;;
29044;SDS011;16133;49.486;12.176;2022-08-19T14:22:30;12.60;;;8.30;;
29044;SDS011;16133;49.486;12.176;2022-08-19T14:24:58;11.50;;;8.23;;
29044;SDS011;16133;49.486;12.176;2022-08-19T14:27:24;11.45;;;7.72;;
29044;SDS011;16133;49.486;12.176;2022-08-19T14:29:50;10.15;;;7.55;;
29044;SDS011;16133;49.486;12.176;2022-08-19T14:32:16;15.50;;;8.13;;
29044;SDS011;16133;49.486;12.176;2022-08-19T14:34:42;9.38;;;6.85;;
29044;SDS011;16133;49.486;12.176;2022-08-19T14:37:10;11.02;;;7.30;;
29044;SDS011;16133;49.486;12.176;2022-08-19T14:39:36;10.23;;;7.32;;
29044;SDS011;16133;49.486;12.176;2022-08-19T14:42:06;8.45;;;6.05;;